createdAt,value
2019-03-26T00:01:19.342Z,99.90
2019-03-26T00:05:51.792Z,99.90
2019-03-26T00:10:26.879Z,99.90
2019-03-26T00:15:03.060Z,99.90
2019-03-26T00:19:35.625Z,99.90
2019-03-26T00:24:09.590Z,99.90
2019-03-26T00:28:44.634Z,99.90
2019-03-26T00:33:17.933Z,99.90
2019-03-26T00:37:51.736Z,99.90
2019-03-26T00:42:26.195Z,99.90
2019-03-26T00:47:00.076Z,99.90
2019-03-26T00:51:34.866Z,99.90
2019-03-26T00:56:08.135Z,99.90
2019-03-26T01:00:48.732Z,99.90
2019-03-26T01:05:22.379Z,99.90
2019-03-26T01:09:57.287Z,99.90
2019-03-26T01:19:07.835Z,99.90
2019-03-26T01:23:40.022Z,99.90
2019-03-26T01:28:14.984Z,99.90
2019-03-26T01:32:48.815Z,99.90
2019-03-26T01:37:21.787Z,99.90
2019-03-26T01:41:55.922Z,99.90
2019-03-26T01:46:34.851Z,99.90
2019-03-26T01:51:06.729Z,99.90
2019-03-26T01:55:41.577Z,99.90
2019-03-26T02:00:15.741Z,99.90
2019-03-26T02:04:59.896Z,99.90
2019-03-26T02:09:29.177Z,99.90
2019-03-26T02:14:04.163Z,99.90
2019-03-26T02:18:36.950Z,99.90
2019-03-26T02:23:13.874Z,99.90
2019-03-26T02:27:46.541Z,99.90
2019-03-26T02:32:21.619Z,99.90
2019-03-26T02:36:55.611Z,99.90
2019-03-26T02:45:56.750Z,99.90
2019-03-26T02:50:29.930Z,99.90
2019-03-26T02:54:57.024Z,99.90
2019-03-26T02:59:29.833Z,99.90
2019-03-26T03:04:05.916Z,99.90
2019-03-26T03:08:37.160Z,99.90
2019-03-26T03:13:10.018Z,99.90
2019-03-26T03:26:41.732Z,99.90
2019-03-26T03:31:15.091Z,99.90
2019-03-26T03:35:52.642Z,99.90
2019-03-26T03:40:23.058Z,99.90
2019-03-26T03:44:57.444Z,99.90
2019-03-26T03:49:34.377Z,99.90
2019-03-26T03:54:06.869Z,99.90
2019-03-26T03:58:42.350Z,99.90
2019-03-26T04:03:18.837Z,99.90
2019-03-26T04:07:52.602Z,99.90
2019-03-26T04:12:27.794Z,99.90
2019-03-26T04:21:39.946Z,99.90
2019-03-26T04:26:13.847Z,99.90
2019-03-26T04:30:47.578Z,99.90
2019-03-26T04:35:24.884Z,99.90
2019-03-26T04:39:58.633Z,99.90
2019-03-26T04:44:31.654Z,99.90
2019-03-26T04:49:05.304Z,99.90
2019-03-26T04:53:38.383Z,99.90
2019-03-26T04:58:15.819Z,99.90
2019-03-26T05:02:50.677Z,99.90
2019-03-26T05:07:22.342Z,99.90
2019-03-26T05:11:58.441Z,99.90
2019-03-26T05:16:32.823Z,99.90
2019-03-26T05:21:05.549Z,99.90
2019-03-26T05:25:40.806Z,99.90
2019-03-26T05:30:16.974Z,99.90
2019-03-26T05:34:56.974Z,99.90
2019-03-26T05:39:27.475Z,99.90
2019-03-26T05:44:02.410Z,99.90
2019-03-26T05:48:36.160Z,99.90
2019-03-26T05:57:45.847Z,99.90
2019-03-26T06:02:22.389Z,99.90
2019-03-26T06:07:04.810Z,99.90
2019-03-26T06:11:31.745Z,99.90
2019-03-26T06:16:06.020Z,99.90
2019-03-26T06:20:43.766Z,99.90
2019-03-26T06:25:37.698Z,99.90
2019-03-26T06:34:46.458Z,99.90
2019-03-26T06:39:22.447Z,99.90
2019-03-26T06:43:57.535Z,99.90
2019-03-26T06:48:31.299Z,99.90
2019-03-26T06:53:03.642Z,99.90
2019-03-26T06:57:36.252Z,99.90
2019-03-26T07:02:08.051Z,99.90
2019-03-26T07:11:24.739Z,99.90
2019-03-26T07:16:17.305Z,99.90
2019-03-26T07:20:51.492Z,99.90
2019-03-26T07:25:23.696Z,99.90
2019-03-26T07:29:57.348Z,99.90
2019-03-26T07:34:31.932Z,99.90
2019-03-26T07:39:05.583Z,99.90
2019-03-26T07:43:37.085Z,99.90
2019-03-26T07:48:07.909Z,99.90
2019-03-26T07:52:45.892Z,99.90
2019-03-26T07:57:24.391Z,99.90
2019-03-26T08:02:18.833Z,99.90
2019-03-26T08:06:58.285Z,99.90
2019-03-26T08:11:31.796Z,99.90
2019-03-26T08:16:04.772Z,99.90
2019-03-26T08:20:43.800Z,99.90
2019-03-26T08:25:17.657Z,99.90
2019-03-26T08:29:51.847Z,99.90
2019-03-26T08:34:24.924Z,99.90
2019-03-26T08:39:20.168Z,99.90
2019-03-26T08:43:57.618Z,99.90
2019-03-26T08:48:32.559Z,99.90
2019-03-26T08:53:04.835Z,99.90
2019-03-26T08:57:38.137Z,99.90
2019-03-26T09:02:12.582Z,99.90
2019-03-26T09:06:47.126Z,99.90
2019-03-26T09:11:19.844Z,99.90
2019-03-26T13:32:47.404Z,92.40
2019-03-26T13:37:21.908Z,92.40
2019-03-26T13:41:55.071Z,94.20
2019-03-26T13:46:30.181Z,93.80
2019-03-26T13:51:02.426Z,93.80
2019-03-26T13:55:40.219Z,93.80
2019-03-26T14:00:12.373Z,95.70
2019-03-26T14:04:43.090Z,96.90
2019-03-26T14:09:17.019Z,97.70
2019-03-26T14:13:50.498Z,97.80
2019-03-26T14:18:26.749Z,99.20
2019-03-26T14:23:00.593Z,99.40
2019-03-26T14:27:33.273Z,99.20
2019-03-26T14:32:06.915Z,98.40
2019-03-26T14:36:40.754Z,98.20
2019-03-26T14:41:53.298Z,98.60
2019-03-26T14:46:26.586Z,99.10
2019-03-26T14:51:02.232Z,99.90
2019-03-26T14:55:38.655Z,99.90
2019-03-26T15:00:11.138Z,99.90
2019-03-26T15:04:43.178Z,99.90
2019-03-26T15:13:51.492Z,99.90
2019-03-26T15:18:26.962Z,99.90
2019-03-26T15:27:32.818Z,99.90
2019-03-26T15:32:06.816Z,99.90
2019-03-26T15:36:41.224Z,99.90
2019-03-26T15:41:21.910Z,99.90
2019-03-26T15:45:52.013Z,99.90
2019-03-26T15:50:30.734Z,99.90
2019-03-26T15:55:02.400Z,99.90
2019-03-26T15:59:35.204Z,99.90
2019-03-26T16:04:17.920Z,99.90
2019-03-26T16:08:51.579Z,99.90
2019-03-26T16:13:24.098Z,99.90
2019-03-26T16:17:58.188Z,99.90
2019-03-26T16:22:32.543Z,99.90
2019-03-26T16:27:10.099Z,99.90
2019-03-26T16:32:02.712Z,99.90
2019-03-26T16:36:35.360Z,99.90
2019-03-26T16:45:43.701Z,99.90
2019-03-26T16:50:21.524Z,99.90
2019-03-26T16:54:54.550Z,99.90
2019-03-26T16:59:29.921Z,99.90
2019-03-26T17:04:02.976Z,99.90
2019-03-26T17:08:38.068Z,99.90
2019-03-26T17:13:12.142Z,99.90
2019-03-26T17:17:47.147Z,99.90
2019-03-26T17:22:21.362Z,99.90
2019-03-26T17:26:55.258Z,99.90
2019-03-26T17:31:29.055Z,99.90
2019-03-26T17:36:02.251Z,99.90
2019-03-26T17:40:35.792Z,99.90
2019-03-26T17:45:10.179Z,99.90
2019-03-26T17:49:42.805Z,99.90
2019-03-26T17:54:18.641Z,99.90
2019-03-26T17:58:52.513Z,99.90
2019-03-26T18:07:58.592Z,99.90
2019-03-26T18:12:34.275Z,99.90
2019-03-26T18:17:07.452Z,99.90
2019-03-26T18:21:50.848Z,99.90
2019-03-26T18:26:17.419Z,99.90
2019-03-26T18:30:54.915Z,99.90
2019-03-26T18:35:30.502Z,99.90
2019-03-26T18:40:01.115Z,99.90
2019-03-26T18:44:41.693Z,99.90
2019-03-26T18:49:14.798Z,99.90
2019-03-26T18:53:50.638Z,99.90
2019-03-26T18:58:42.791Z,99.90
2019-03-26T19:03:20.910Z,99.90
2019-03-26T19:07:55.350Z,99.90
2019-03-26T19:12:31.739Z,99.90
2019-03-26T19:17:02.790Z,99.90
2019-03-26T19:26:14.219Z,99.90
2019-03-26T19:30:49.979Z,99.90
2019-03-26T19:35:22.855Z,99.90
2019-03-26T19:39:55.604Z,99.90
2019-03-26T19:49:01.672Z,99.90
2019-03-26T19:53:34.789Z,99.90
2019-03-26T19:58:10.819Z,99.90
2019-03-26T20:03:02.791Z,99.90
2019-03-26T20:07:35.505Z,99.90
2019-03-26T20:12:07.322Z,99.90
2019-03-26T20:16:42.144Z,99.90
2019-03-26T20:21:12.621Z,99.90
2019-03-26T20:25:45.946Z,99.90
2019-03-26T20:30:18.588Z,99.90
2019-03-26T20:34:55.526Z,99.90
2019-03-26T20:39:49.669Z,99.90
2019-03-26T20:44:25.518Z,99.90
2019-03-26T20:48:58.256Z,99.90
2019-03-26T20:53:30.479Z,99.90
2019-03-26T21:07:10.284Z,99.90
2019-03-26T21:16:18.487Z,99.90
2019-03-26T21:20:53.253Z,99.90
2019-03-26T21:25:28.329Z,99.90
2019-03-26T21:30:11.590Z,99.90
2019-03-26T21:34:37.880Z,99.90
2019-03-26T21:39:10.441Z,99.90
2019-03-26T21:43:44.767Z,99.90
2019-03-26T21:48:17.253Z,99.90
2019-03-26T21:52:56.668Z,99.90
2019-03-26T21:57:30.245Z,99.90
2019-03-26T22:02:03.344Z,99.90
2019-03-26T22:06:45.031Z,99.90
2019-03-26T22:11:19.227Z,99.90
2019-03-26T22:15:50.108Z,99.90
2019-03-26T22:20:42.120Z,99.90
2019-03-26T22:25:12.897Z,99.90
2019-03-26T22:29:50.611Z,99.90
2019-03-26T22:34:42.445Z,99.90
2019-03-26T22:39:17.000Z,99.90
2019-03-26T22:48:22.412Z,99.90
2019-03-26T22:52:57.369Z,99.90
2019-03-26T22:57:32.693Z,99.90
2019-03-26T23:02:07.753Z,99.90
2019-03-26T23:06:42.058Z,99.90
2019-03-26T23:11:12.744Z,99.90
2019-03-26T23:15:45.293Z,99.90
2019-03-26T23:20:22.962Z,99.90
2019-03-26T23:25:00.777Z,99.90
2019-03-26T23:29:30.653Z,99.90
2019-03-26T23:34:02.813Z,99.90
2019-03-26T23:38:37.035Z,99.90
2019-03-26T23:43:11.058Z,99.90
2019-03-26T23:47:43.606Z,99.90
2019-03-26T23:52:16.806Z,99.90
2019-03-26T23:56:51.059Z,99.90
